KAHN/AHN METAR and TAF weather

Enter ICAO airport designator
Station Type Date Time Source
KAHN METAR 2022/12/10 01:51 UTC NOAA

KAHN 100151Z AUTO 08008KT 10SM OVC004 12/11 A3016 RMK AO2 RAB17E34 SLP214 P0001 T01170106


Station Type Date Time Source
KAHN Decoded METAR 2022/12/10 01:51 UTC NOAA

ATHENS BEN EPPS AIRPORT, GA, United States (KAHN) 33-57N 083-20W 244M
Dec 09, 2022 - 08:51 PM EST / 2022.12.10 0151 UTC
Wind: from the E (080 degrees) at 9 MPH (8 KT):0
Visibility: 10 mile(s):0
Sky conditions: overcast
Precipitation last hour: 0.01 inches
Temperature: 53.1 F (11.7 C)
Dew Point: 51.1 F (10.6 C)
Relative Humidity: 92%
Pressure (altimeter): 30.16 in. Hg (1021 hPa)
ob: KAHN 100151Z AUTO 08008KT 10SM OVC004 12/11 A3016 RMK AO2 RAB17E34 SLP214 P0001 T01170106
cycle: 2

Station Type Date Time Source
KAHN TAF 2022/12/09 18:24 UTC NOAA

TAF KAHN 091720Z 0918/1018 08005KT 3SM -SHRA BR OVC005
FM100200 06004KT 2SM -DZ BR OVC004
FM101000 06004KT 1/2SM FG OVC004
FM101700 07005KT 4SM BR OVC007

Example: see airport list